Time;durP1;ratioP1;P1;durP2;ratioP2;P2;SDS_P1;SDS_P2;PMS_P1;PMS_P2;Temp;Humidity;BMP_temperature;BMP_pressure;BME280_temperature;BME280_humidity;BME280_pressure;Samples;Min_cycle;Max_cycle;Signal;HPM_P1;HPM_P2
2021/12/11 00:02:31;;;;;;;49.70;26.35;;;;;;;1.86;100.00;99217.75;5018348;28;20045;-89
2021/12/11 00:04:58;;;;;;;56.75;27.63;;;;;;;2.00;100.00;99219.94;5018200;28;20061;-89
2021/12/11 00:07:28;;;;;;;55.25;28.05;;;;;;;2.02;100.00;99217.19;5018539;28;20045;-88
2021/12/11 00:10:14;;;;;;;54.25;27.48;;;;;;;1.98;100.00;99231.50;5000298;28;20054;-87
2021/12/11 00:12:52;;;;;;;54.10;29.10;;;;;;;1.90;100.00;99220.91;4999858;28;20034;-89
2021/12/11 00:15:22;;;;;;;55.20;28.45;;;;;;;1.88;100.00;99233.28;4995540;28;20045;-88
2021/12/11 00:17:49;;;;;;;56.50;28.42;;;;;;;1.97;100.00;99235.06;4996799;28;20049;-87
2021/12/11 00:20:24;;;;;;;51.45;26.85;;;;;;;1.87;100.00;99229.84;4997336;28;20033;-87
2021/12/11 00:22:51;;;;;;;58.17;28.88;;;;;;;1.86;100.00;99229.97;4997472;28;20487;-89
2021/12/11 00:25:17;;;;;;;52.00;28.00;;;;;;;1.83;100.00;99230.25;4997022;28;20406;-88
2021/12/11 00:27:46;;;;;;;58.15;27.80;;;;;;;1.86;100.00;99237.81;4997650;28;20488;-87
2021/12/11 00:30:26;;;;;;;54.85;28.45;;;;;;;1.88;100.00;99230.69;4996525;28;20034;-87
2021/12/11 00:33:09;;;;;;;57.30;29.45;;;;;;;1.86;100.00;99227.38;4997093;28;20042;-89
2021/12/11 00:35:35;;;;;;;52.30;27.75;;;;;;;1.85;100.00;99228.34;4997033;28;20088;-87
2021/12/11 00:38:19;;;;;;;49.70;27.27;;;;;;;1.85;100.00;99226.56;4997173;28;20043;-88
2021/12/11 00:40:48;;;;;;;52.03;27.27;;;;;;;1.83;100.00;99232.88;4996209;28;20103;-87
2021/12/11 00:43:20;;;;;;;51.33;28.25;;;;;;;1.89;100.00;99232.34;4999040;28;20018;-88
2021/12/11 00:45:49;;;;;;;58.50;29.23;;;;;;;1.86;100.00;99243.88;5000388;28;20053;-87
2021/12/11 00:48:19;;;;;;;54.03;28.45;;;;;;;1.91;100.00;99246.06;5001743;28;20030;-89
2021/12/11 00:50:53;;;;;;;55.72;28.38;;;;;;;1.91;100.00;99246.91;5002176;28;20117;-89
2021/12/11 00:53:29;;;;;;;51.67;27.73;;;;;;;1.84;100.00;99252.81;4999300;28;20411;-89
2021/12/11 00:56:03;;;;;;;53.45;28.30;;;;;;;1.79;100.00;99253.22;5000464;28;20049;-87
2021/12/11 00:59:08;;;;;;;57.65;29.77;;;;;;;1.77;100.00;99251.72;5000593;28;20483;-89
2021/12/11 01:01:57;;;;;;;62.72;30.15;;;;;;;1.79;100.00;99258.44;4999846;28;20045;-88
2021/12/11 01:04:27;;;;;;;59.65;29.83;;;;;;;1.75;100.00;99254.47;4984257;28;20035;-90
2021/12/11 01:07:01;;;;;;;55.55;28.45;;;;;;;1.72;100.00;99249.53;5001512;28;20026;-88
2021/12/11 01:09:36;;;;;;;53.30;28.58;;;;;;;1.67;100.00;99256.94;4999637;28;20435;-89
2021/12/11 01:12:20;;;;;;;54.30;29.05;;;;;;;1.74;100.00;99259.81;5001225;28;20058;-89
2021/12/11 01:14:52;;;;;;;56.53;29.60;;;;;;;1.80;100.00;99248.81;5002076;28;20082;-87
2021/12/11 01:17:26;;;;;;;53.60;29.58;;;;;;;1.71;100.00;99253.09;5002546;28;20054;-88
2021/12/11 01:19:59;;;;;;;53.15;28.10;;;;;;;1.70;100.00;99253.22;5003197;28;20039;-90
2021/12/11 01:22:33;;;;;;;55.42;29.73;;;;;;;1.67;100.00;99256.09;5002137;28;20038;-90
2021/12/11 01:25:11;;;;;;;54.88;29.05;;;;;;;1.64;100.00;99264.22;5001370;28;20034;-89
2021/12/11 01:27:52;;;;;;;59.63;30.05;;;;;;;1.63;100.00;99265.16;5001516;28;20103;-88
2021/12/11 01:30:25;;;;;;;57.10;28.92;;;;;;;1.62;100.00;99271.38;5002612;28;20053;-90
2021/12/11 01:32:52;;;;;;;54.75;28.40;;;;;;;1.65;100.00;99273.72;5005256;28;20054;-88
2021/12/11 01:35:19;;;;;;;52.13;26.73;;;;;;;1.70;100.00;99285.38;5006317;28;20113;-88
2021/12/11 01:37:48;;;;;;;53.17;27.33;;;;;;;1.75;100.00;99280.59;5006600;28;20049;-88
2021/12/11 01:40:18;;;;;;;52.47;27.38;;;;;;;1.82;100.00;99283.47;5006663;28;20038;-88
2021/12/11 01:42:44;;;;;;;50.83;26.98;;;;;;;1.87;100.00;99281.28;5003324;28;20092;-88
2021/12/11 01:45:13;;;;;;;49.72;27.08;;;;;;;1.84;100.00;99281.53;5000588;28;20042;-86
2021/12/11 01:47:42;;;;;;;54.58;26.35;;;;;;;1.77;100.00;99278.66;5002387;28;20424;-89
2021/12/11 01:50:16;;;;;;;49.03;26.52;;;;;;;1.70;100.00;99274.09;4999239;28;20034;-87
2021/12/11 01:52:54;;;;;;;48.35;27.02;;;;;;;1.67;100.00;99285.66;4998501;28;20133;-88
2021/12/11 01:55:31;;;;;;;50.38;26.70;;;;;;;1.65;100.00;99276.31;4999853;28;20049;-87
2021/12/11 01:57:58;;;;;;;45.50;26.52;;;;;;;1.63;100.00;99273.00;4998403;28;20049;-87
2021/12/11 02:00:35;;;;;;;47.00;25.42;;;;;;;1.61;100.00;99273.16;5002525;28;20030;-87
2021/12/11 02:03:05;;;;;;;45.15;24.45;;;;;;;1.59;100.00;99282.09;4999401;28;20080;-89
2021/12/11 02:05:35;;;;;;;46.33;25.15;;;;;;;1.53;100.00;99279.03;4999433;28;20035;-88
2021/12/11 02:08:06;;;;;;;45.67;25.95;;;;;;;1.59;100.00;99269.03;5000058;28;20034;-88
2021/12/11 02:10:38;;;;;;;45.90;24.75;;;;;;;1.56;100.00;99273.53;4997863;28;20030;-88
2021/12/11 02:13:11;;;;;;;45.63;25.25;;;;;;;1.59;100.00;99274.25;4999604;28;20042;-90
2021/12/11 02:15:46;;;;;;;44.15;24.02;;;;;;;1.68;100.00;99276.88;4999412;28;20034;-89
2021/12/11 02:18:33;;;;;;;42.17;24.25;;;;;;;1.67;100.00;99282.22;4999326;28;20066;-86
2021/12/11 02:21:08;;;;;;;43.50;24.45;;;;;;;1.77;100.00;99275.22;4998743;28;20084;-89
2021/12/11 02:23:34;;;;;;;43.55;24.15;;;;;;;1.66;100.00;99273.56;4996527;28;20053;-87
2021/12/11 02:26:06;;;;;;;44.35;24.17;;;;;;;1.70;100.00;99268.88;4995829;28;20499;-89
2021/12/11 02:28:58;;;;;;;41.45;23.08;;;;;;;1.64;100.00;99279.88;4996173;28;20041;-87
2021/12/11 02:31:38;;;;;;;43.13;23.00;;;;;;;1.63;100.00;99270.38;4996670;28;20038;-86
2021/12/11 02:34:24;;;;;;;43.35;24.23;;;;;;;1.61;100.00;99269.72;4996517;28;20037;-86
2021/12/11 02:36:56;;;;;;;43.13;24.90;;;;;;;1.58;100.00;99273.44;4997647;28;20049;-85
2021/12/11 02:39:31;;;;;;;46.08;24.52;;;;;;;1.59;100.00;99266.44;4997244;28;20045;-87
2021/12/11 02:42:09;;;;;;;44.08;23.85;;;;;;;1.55;100.00;99269.31;4978913;28;20046;-85
2021/12/11 02:44:39;;;;;;;43.33;25.17;;;;;;;1.59;100.00;99271.66;4996507;28;20499;-86
2021/12/11 02:47:22;;;;;;;40.65;24.42;;;;;;;1.60;100.00;99268.06;5000802;28;20061;-87
2021/12/11 02:50:10;;;;;;;45.85;25.25;;;;;;;1.58;100.00;99264.75;5000280;28;20045;-88
2021/12/11 02:52:38;;;;;;;46.50;24.65;;;;;;;1.70;100.00;99263.66;4998287;28;20101;-88
2021/12/11 02:55:33;;;;;;;43.33;23.48;;;;;;;1.85;100.00;99264.91;4997426;28;20038;-89
2021/12/11 02:58:22;;;;;;;41.28;21.33;;;;;;;1.89;100.00;99258.47;4994106;28;20054;-87
2021/12/11 03:00:54;;;;;;;63.38;25.30;;;;;;;1.89;100.00;99255.84;4996439;28;20475;-89
2021/12/11 03:03:27;;;;;;;34.40;20.35;;;;;;;1.92;100.00;99252.97;4997266;28;20117;-86
2021/12/11 03:06:05;;;;;;;37.05;19.67;;;;;;;2.09;100.00;99255.69;4996134;28;20065;-87
2021/12/11 03:08:31;;;;;;;32.42;18.10;;;;;;;2.11;100.00;99259.94;4995804;28;20030;-86
2021/12/11 03:11:07;;;;;;;33.90;18.67;;;;;;;2.00;100.00;99260.91;4996110;28;20038;-89
2021/12/11 03:13:34;;;;;;;31.55;17.58;;;;;;;1.86;100.00;99266.56;5006270;28;20038;-88
2021/12/11 03:16:02;;;;;;;33.33;17.73;;;;;;;1.70;100.00;99264.50;5018700;28;20045;-90
2021/12/11 03:18:28;;;;;;;30.23;16.25;;;;;;;1.75;100.00;99264.94;5019006;28;20042;-91
2021/12/11 03:20:54;;;;;;;27.80;15.75;;;;;;;1.77;100.00;99270.00;5018933;28;20052;-89
2021/12/11 03:23:21;;;;;;;29.08;15.95;;;;;;;1.64;100.00;99251.16;5003550;28;20042;-88
2021/12/11 03:25:47;;;;;;;30.77;15.80;;;;;;;1.52;100.00;99255.69;4978485;28;20117;-89
2021/12/11 03:28:17;;;;;;;27.55;16.15;;;;;;;1.65;100.00;99256.25;4995231;28;20034;-88
2021/12/11 03:30:51;;;;;;;25.15;15.43;;;;;;;1.70;100.00;99259.28;4995888;28;20435;-88
2021/12/11 03:33:18;;;;;;;22.23;13.13;;;;;;;1.60;100.00;99262.81;4996719;28;20035;-86
2021/12/11 03:35:46;;;;;;;24.40;12.57;;;;;;;1.78;100.00;99275.09;4995582;28;20080;-86
2021/12/11 03:38:12;;;;;;;25.02;13.93;;;;;;;1.62;100.00;99274.81;4996428;28;20041;-88
2021/12/11 03:40:38;;;;;;;24.88;13.02;;;;;;;1.65;100.00;99271.94;4997259;28;20038;-89
2021/12/11 03:43:08;;;;;;;23.15;13.18;;;;;;;1.80;100.00;99270.53;4996502;28;20526;-87
2021/12/11 03:45:37;;;;;;;22.13;12.27;;;;;;;1.74;100.00;99276.31;4995720;28;20444;-87
2021/12/11 03:48:11;;;;;;;17.92;10.63;;;;;;;1.66;100.00;99275.38;4996751;28;20030;-87
2021/12/11 03:50:38;;;;;;;18.67;11.10;;;;;;;1.42;100.00;99281.78;4979980;28;20038;-88
2021/12/11 03:53:05;;;;;;;22.35;11.73;;;;;;;1.32;100.00;99278.34;4996356;28;20492;-88
2021/12/11 03:55:39;;;;;;;20.45;10.63;;;;;;;1.29;100.00;99277.78;4996101;28;20072;-88
2021/12/11 03:58:07;;;;;;;19.63;11.27;;;;;;;1.39;100.00;99284.66;4997865;28;20085;-86
2021/12/11 04:00:47;;;;;;;21.08;11.18;;;;;;;1.37;100.00;99286.56;4998326;28;20038;-84
2021/12/11 04:03:22;;;;;;;18.98;10.32;;;;;;;1.40;100.00;99288.91;4999613;28;20026;-88
2021/12/11 04:05:49;;;;;;;18.10;9.85;;;;;;;1.45;100.00;99280.69;4999316;28;20492;-88
2021/12/11 04:08:19;;;;;;;18.65;9.65;;;;;;;1.39;100.00;99282.03;4998163;28;20070;-87
2021/12/11 04:10:45;;;;;;;14.73;8.73;;;;;;;1.41;100.00;99287.13;4995598;28;20080;-88
2021/12/11 04:13:14;;;;;;;17.20;8.90;;;;;;;1.50;100.00;99281.09;4995161;28;20046;-86
2021/12/11 04:15:43;;;;;;;22.02;9.73;;;;;;;1.50;100.00;99281.94;4994847;28;20109;-90
2021/12/11 04:18:09;;;;;;;17.70;8.48;;;;;;;1.54;100.00;99285.09;4995105;28;20081;-89
2021/12/11 04:20:39;;;;;;;14.63;8.18;;;;;;;1.63;100.00;99286.06;4997107;28;20037;-86
2021/12/11 04:23:07;;;;;;;13.75;8.13;;;;;;;1.81;100.00;99297.50;4997309;28;20066;-87
2021/12/11 04:25:33;;;;;;;14.68;8.05;;;;;;;1.91;100.00;99304.38;4996330;28;20373;-88
2021/12/11 04:28:00;;;;;;;16.15;8.20;;;;;;;1.92;100.00;99302.59;4995484;28;20379;-88
2021/12/11 04:30:27;;;;;;;14.43;8.00;;;;;;;1.85;100.00;99298.88;4996581;28;20041;-89
2021/12/11 04:32:55;;;;;;;13.57;8.05;;;;;;;1.58;100.00;99309.16;4996707;28;20034;-88
2021/12/11 04:35:26;;;;;;;13.57;8.13;;;;;;;1.61;100.00;99312.31;4996407;28;20034;-88
2021/12/11 04:37:52;;;;;;;11.98;7.47;;;;;;;1.56;100.00;99311.88;4995057;28;20034;-87
2021/12/11 04:40:25;;;;;;;15.40;8.40;;;;;;;1.50;100.00;99315.03;4997312;28;20090;-86
2021/12/11 04:42:58;;;;;;;14.20;7.80;;;;;;;1.52;100.00;99308.72;4997371;28;20038;-88
2021/12/11 04:45:37;;;;;;;14.13;6.88;;;;;;;1.65;100.00;99318.09;4996206;28;20041;-87
2021/12/11 04:48:14;;;;;;;12.32;7.35;;;;;;;1.59;100.00;99329.91;4995958;28;20046;-88
2021/12/11 04:50:58;;;;;;;12.25;6.90;;;;;;;1.52;100.00;99329.59;4995238;28;20384;-87
2021/12/11 04:56:22;;;;;;;13.02;7.28;;;;;;;1.74;100.00;99352.06;4999329;28;20117;-87
2021/12/11 05:01:59;;;;;;;13.02;7.72;;;;;;;1.90;100.00;99348.91;4965281;28;20046;-86
2021/12/11 05:05:07;;;;;;;10.18;6.70;;;;;;;1.95;100.00;99359.81;4998505;28;20042;-88
2021/12/11 05:10:03;;;;;;;14.45;7.47;;;;;;;2.16;100.00;99359.66;4996810;28;20042;-87
2021/12/11 05:12:38;;;;;;;12.70;6.85;;;;;;;2.19;100.00;99354.97;4997285;28;20034;-86
2021/12/11 05:15:15;;;;;;;15.73;7.75;;;;;;;2.15;100.00;99358.84;4997120;28;20042;-86
2021/12/11 05:17:41;;;;;;;12.60;7.60;;;;;;;2.16;100.00;99360.47;4996198;28;20038;-85
2021/12/11 05:20:10;;;;;;;13.60;7.53;;;;;;;1.97;100.00;99360.47;4998404;28;20484;-87
2021/12/11 05:22:37;;;;;;;17.02;8.85;;;;;;;2.04;100.00;99361.59;4998558;28;20093;-90
2021/12/11 05:25:07;;;;;;;14.57;8.50;;;;;;;2.03;100.00;99365.97;4998227;28;20054;-89
2021/12/11 05:28:11;;;;;;;16.48;7.60;;;;;;;1.86;100.00;99363.19;5014706;28;20046;-89
2021/12/11 05:30:41;;;;;;;13.32;7.47;;;;;;;1.79;100.00;99367.34;4998562;28;20045;-89
2021/12/11 05:33:08;;;;;;;14.15;8.07;;;;;;;1.70;100.00;99368.94;5011199;28;20042;-90
2021/12/11 05:35:46;;;;;;;14.20;8.75;;;;;;;1.43;100.00;99366.13;4981412;28;20049;-91
2021/12/11 05:38:18;;;;;;;12.00;6.88;;;;;;;1.39;100.00;99357.72;5158471;22;20138;-90
2021/12/11 05:40:52;;;;;;;11.27;6.93;;;;;;;1.58;100.00;99366.59;5015198;28;20044;-88
2021/12/11 05:43:19;;;;;;;9.70;5.20;;;;;;;1.54;100.00;99372.09;5028346;28;20061;-87
2021/12/11 05:45:46;;;;;;;11.07;5.38;;;;;;;1.71;100.00;99369.78;5012749;28;20049;-88
2021/12/11 05:48:14;;;;;;;10.43;5.68;;;;;;;1.57;100.00;99368.38;5028206;28;20037;-90
2021/12/11 05:50:48;;;;;;;7.90;5.10;;;;;;;1.68;100.00;99372.66;5007723;28;20038;-90
2021/12/11 05:53:15;;;;;;;10.80;5.60;;;;;;;1.59;100.00;99376.09;5004642;28;20033;-90
2021/12/11 05:56:17;;;;;;;8.50;4.85;;;;;;;1.33;100.00;99379.16;5011681;28;20037;-92
2021/12/11 05:58:56;;;;;;;10.02;4.93;;;;;;;1.41;100.00;99374.09;4924436;29;20086;-86
2021/12/11 06:01:39;;;;;;;8.73;4.70;;;;;;;1.26;100.00;99385.03;4957533;29;20104;-91
2021/12/11 06:04:20;;;;;;;12.18;5.18;;;;;;;1.24;100.00;99397.38;4949535;29;20197;-90
2021/12/11 06:06:47;;;;;;;8.05;4.50;;;;;;;1.15;100.00;99399.00;4962954;29;20062;-90
2021/12/11 06:09:15;;;;;;;9.05;4.57;;;;;;;1.43;100.00;99406.09;4957126;28;20065;-86
2021/12/11 06:11:47;;;;;;;16.10;6.35;;;;;;;1.49;100.00;99402.97;5022435;28;20669;-89
2021/12/11 06:17:56;;;;;;;9.43;3.73;;;;;;;1.25;100.00;99425.97;5252003;22;20069;-92
2021/12/11 06:39:11;;;;;;;13.68;5.85;;;;;;;1.18;100.00;99439.66;5047705;28;20052;-93
2021/12/11 06:41:42;;;;;;;14.50;6.35;;;;;;;1.37;100.00;99440.56;5033111;28;20100;-87
2021/12/11 06:44:09;;;;;;;14.50;6.32;;;;;;;1.04;100.00;99446.03;5026568;28;20071;-89
2021/12/11 06:46:37;;;;;;;13.27;6.38;;;;;;;0.98;100.00;99454.38;5029662;28;20064;-90
2021/12/11 06:49:04;;;;;;;11.38;5.90;;;;;;;0.89;100.00;99462.97;5028411;28;20045;-89
2021/12/11 06:51:31;;;;;;;14.80;7.47;;;;;;;0.71;100.00;99469.69;5019254;28;20398;-88
2021/12/11 06:54:00;;;;;;;12.40;7.30;;;;;;;0.73;100.00;99473.00;5023924;28;20022;-88
2021/12/11 06:56:27;;;;;;;14.27;7.20;;;;;;;0.68;100.00;99478.59;5025602;28;20038;-88
2021/12/11 06:58:54;;;;;;;11.93;6.88;;;;;;;0.64;100.00;99484.16;5024386;28;20030;-89
2021/12/11 07:01:22;;;;;;;14.68;7.72;;;;;;;0.87;100.00;99481.34;5016011;28;20041;-87
2021/12/11 07:03:48;;;;;;;15.32;8.10;;;;;;;0.97;100.00;99491.81;5016854;28;20085;-92
2021/12/11 07:06:15;;;;;;;17.00;8.38;;;;;;;1.14;100.00;99491.25;5018380;28;20048;-89
2021/12/11 07:08:42;;;;;;;17.95;9.52;;;;;;;1.24;100.00;99491.31;5015080;28;20117;-89
2021/12/11 07:11:11;;;;;;;20.38;9.60;;;;;;;1.61;100.00;99489.03;5015818;28;20040;-90
2021/12/11 07:13:38;;;;;;;16.75;8.98;;;;;;;2.28;100.00;99495.34;5016447;28;20029;-90
2021/12/11 07:16:05;;;;;;;21.17;8.82;;;;;;;3.11;100.00;99502.66;5022367;28;20030;-89
2021/12/11 07:18:42;;;;;;;21.88;8.20;;;;;;;3.76;100.00;99506.22;5022028;28;20045;-91
2021/12/11 07:21:08;;;;;;;15.50;8.27;;;;;;;4.46;98.86;99509.03;4998979;28;20052;-88
2021/12/11 07:23:35;;;;;;;18.45;8.30;;;;;;;4.27;92.59;99511.78;5021371;28;20093;-87
2021/12/11 07:26:15;;;;;;;20.77;8.77;;;;;;;4.63;92.21;99520.53;5017361;28;20495;-86
2021/12/11 07:28:42;;;;;;;14.85;7.80;;;;;;;4.28;91.44;99518.66;5017457;28;20038;-90
2021/12/11 07:31:11;;;;;;;15.10;8.13;;;;;;;4.66;89.93;99523.69;5016995;28;20040;-88
2021/12/11 07:33:37;;;;;;;13.45;7.38;;;;;;;4.90;89.29;99532.75;5022612;28;20513;-88
2021/12/11 07:36:09;;;;;;;13.57;6.45;;;;;;;5.05;86.13;99537.31;5019542;28;20040;-89
2021/12/11 07:38:37;;;;;;;12.18;6.78;;;;;;;5.02;85.19;99539.44;5022197;28;20026;-90
2021/12/11 07:41:07;;;;;;;13.93;6.68;;;;;;;4.79;86.67;99543.47;5027883;23;20050;-90
2021/12/11 07:43:37;;;;;;;21.67;8.52;;;;;;;4.91;86.72;99548.34;5006059;28;20093;-89
2021/12/11 07:46:05;;;;;;;20.38;11.20;;;;;;;4.06;94.20;99550.53;5023103;28;20037;-87
2021/12/11 07:48:37;;;;;;;15.48;9.95;;;;;;;3.69;92.80;99557.53;5020932;28;20038;-86
2021/12/11 07:51:07;;;;;;;15.32;8.73;;;;;;;3.46;92.44;99567.50;5001296;28;20034;-88
2021/12/11 07:53:33;;;;;;;16.17;8.85;;;;;;;3.68;92.26;99571.63;5019866;28;20037;-88
2021/12/11 07:55:59;;;;;;;18.27;9.68;;;;;;;3.71;93.54;99576.56;5017038;28;20042;-88
2021/12/11 07:58:26;;;;;;;19.08;10.35;;;;;;;3.42;93.91;99582.69;5017598;28;20037;-87
2021/12/11 08:00:52;;;;;;;18.73;10.27;;;;;;;2.91;94.32;99585.59;5017942;28;20030;-87
2021/12/11 08:03:18;;;;;;;22.02;10.15;;;;;;;2.88;96.71;99587.66;5019014;28;20037;-90
2021/12/11 08:05:46;;;;;;;16.95;9.75;;;;;;;2.49;99.58;99603.25;4999654;28;20045;-88
2021/12/11 08:08:12;;;;;;;17.20;8.27;;;;;;;2.59;98.36;99603.28;5002092;28;20030;-89
2021/12/11 08:10:41;;;;;;;18.40;9.90;;;;;;;2.80;98.26;99605.81;5019365;28;20538;-88
2021/12/11 08:13:09;;;;;;;16.70;9.20;;;;;;;2.90;96.65;99617.94;5016711;28;20034;-88
2021/12/11 08:15:36;;;;;;;14.68;9.27;;;;;;;3.09;98.17;99610.13;5015858;28;20037;-89
2021/12/11 08:18:06;;;;;;;14.75;8.93;;;;;;;3.11;96.86;99610.00;4997586;28;20030;-86
2021/12/11 08:20:33;;;;;;;15.95;9.60;;;;;;;2.97;96.48;99626.09;5017126;28;20029;-95
2021/12/11 08:22:59;;;;;;;17.92;9.00;;;;;;;3.01;100.00;99624.84;5017012;28;20041;-91
2021/12/11 08:25:27;;;;;;;14.32;7.15;;;;;;;2.89;97.72;99628.53;5015912;28;20037;-87
2021/12/11 08:27:55;;;;;;;15.48;7.20;;;;;;;2.95;95.46;99630.63;5018343;28;20030;-88
2021/12/11 08:30:22;;;;;;;14.43;8.13;;;;;;;2.46;98.25;99650.59;5019132;28;20164;-87
2021/12/11 08:32:48;;;;;;;14.90;7.50;;;;;;;2.56;98.19;99655.84;5018464;28;20030;-88
2021/12/11 08:35:14;;;;;;;12.13;6.40;;;;;;;2.87;95.74;99659.25;4999406;28;20037;-86
2021/12/11 08:37:43;;;;;;;11.30;6.40;;;;;;;3.03;95.59;99655.16;5017977;28;20355;-89
2021/12/11 08:40:13;;;;;;;11.43;6.45;;;;;;;3.08;93.93;99647.72;5016937;28;20042;-86
2021/12/11 08:42:39;;;;;;;12.77;5.53;;;;;;;3.00;93.03;99654.59;5017064;28;20112;-84
2021/12/11 08:45:10;;;;;;;8.32;4.85;;;;;;;2.59;93.81;99666.88;5017238;28;20048;-83
2021/12/11 08:47:40;;;;;;;8.77;4.93;;;;;;;2.41;94.84;99678.94;5017127;28;20029;-83
2021/12/11 08:50:10;;;;;;;10.45;5.07;;;;;;;2.60;95.25;99686.84;4998297;28;20580;-84
2021/12/11 08:52:38;;;;;;;9.65;4.80;;;;;;;2.38;97.01;99694.88;4996973;28;20392;-87
2021/12/11 08:55:10;;;;;;;10.82;4.88;;;;;;;2.28;96.42;99694.00;5004628;28;20097;-83
2021/12/11 08:57:39;;;;;;;12.45;5.03;;;;;;;2.46;96.09;99697.66;5012689;28;20037;-89
2021/12/11 09:00:38;;;;;;;11.85;5.13;;;;;;;2.76;95.86;99703.84;4991043;28;20040;-89
2021/12/11 09:03:10;;;;;;;10.23;5.75;;;;;;;3.07;94.32;99708.06;5036146;28;20037;-88
2021/12/11 09:05:48;;;;;;;10.65;4.07;;;;;;;2.82;95.17;99724.22;4993685;28;20068;-88
2021/12/11 09:08:21;;;;;;;19.05;5.72;;;;;;;2.95;94.83;99732.72;4972151;28;20029;-88
2021/12/11 09:11:00;;;;;;;12.13;4.50;;;;;;;3.22;92.26;99739.91;5002388;28;20038;-87
2021/12/11 09:13:31;;;;;;;15.55;8.73;;;;;;;2.97;96.17;99754.31;4999079;28;20038;-87
2021/12/11 09:16:05;;;;;;;17.17;7.40;;;;;;;3.21;95.81;99749.59;5010668;28;20034;-87
2021/12/11 09:18:40;;;;;;;24.20;9.73;;;;;;;2.82;97.43;99747.78;5011030;28;20034;-88
2021/12/11 09:21:24;;;;;;;15.50;7.85;;;;;;;2.82;97.73;99755.63;5001400;28;20073;-87
2021/12/11 09:24:12;;;;;;;21.63;8.88;;;;;;;2.64;99.58;99755.44;5010901;28;20042;-89
2021/12/11 09:26:47;;;;;;;18.77;8.40;;;;;;;2.81;99.16;99764.47;5009748;28;20061;-89
2021/12/11 09:29:40;;;;;;;20.30;8.70;;;;;;;2.99;98.76;99773.31;5008985;28;20084;-87
2021/12/11 09:32:11;;;;;;;16.17;8.95;;;;;;;3.00;99.34;99775.81;5008367;28;20110;-87
2021/12/11 09:34:42;;;;;;;37.03;15.23;;;;;;;2.70;100.00;99777.63;4995750;28;20045;-88
2021/12/11 09:37:09;;;;;;;21.63;9.98;;;;;;;2.75;100.00;99780.69;5011312;28;20045;-88
2021/12/11 09:39:49;;;;;;;23.63;10.07;;;;;;;2.86;100.00;99770.13;5010445;28;20058;-89
2021/12/11 09:42:14;;;;;;;18.55;10.60;;;;;;;2.95;100.00;99769.34;5004931;28;20062;-88
2021/12/11 09:45:12;;;;;;;22.65;11.05;;;;;;;3.01;100.00;99781.91;5015460;28;20435;-89
2021/12/11 09:47:42;;;;;;;18.33;9.98;;;;;;;3.12;100.00;99793.09;5002175;28;20389;-87
2021/12/11 09:50:14;;;;;;;15.55;9.27;;;;;;;2.73;100.00;99793.06;4987052;28;20557;-87
2021/12/11 09:52:43;;;;;;;21.02;10.93;;;;;;;2.88;100.00;99792.59;5003673;28;20030;-87
2021/12/11 09:55:19;;;;;;;17.10;9.48;;;;;;;3.08;100.00;99788.25;5021128;28;20080;-89
2021/12/11 09:57:49;;;;;;;19.27;10.18;;;;;;;3.33;100.00;99793.00;5013870;28;20054;-86
2021/12/11 10:00:39;;;;;;;19.83;10.75;;;;;;;3.43;100.00;99793.03;5009802;28;20085;-86
2021/12/11 10:03:08;;;;;;;17.95;9.90;;;;;;;3.33;99.37;99800.03;5004802;28;20464;-88
2021/12/11 10:05:46;;;;;;;20.33;11.05;;;;;;;3.19;100.00;99803.84;5023528;28;20034;-87
2021/12/11 10:11:06;;;;;;;19.33;9.73;;;;;;;3.39;100.00;99817.84;4996032;28;20130;-86
2021/12/11 10:13:35;;;;;;;21.85;10.25;;;;;;;3.29;100.00;99836.13;5001607;28;20070;-86
2021/12/11 10:16:02;;;;;;;18.48;8.18;;;;;;;3.23;98.33;99833.22;4993302;28;20034;-85
2021/12/11 10:18:31;;;;;;;14.48;8.27;;;;;;;3.35;95.87;99827.75;5004704;28;20053;-89
2021/12/11 10:21:00;;;;;;;17.35;8.57;;;;;;;3.25;97.32;99824.25;4997575;28;20042;-88
2021/12/11 10:23:30;;;;;;;15.40;8.40;;;;;;;2.99;99.65;99833.53;4985718;28;20038;-85
2021/12/11 10:25:59;;;;;;;24.63;9.25;;;;;;;2.79;100.00;99830.00;5012813;28;20511;-87
2021/12/11 10:28:28;;;;;;;18.05;8.18;;;;;;;2.64;100.00;99826.06;5010509;28;20469;-86
2021/12/11 10:31:16;;;;;;;14.50;8.60;;;;;;;2.59;100.00;99834.28;4971981;28;20038;-87
2021/12/11 10:33:43;;;;;;;20.60;8.68;;;;;;;2.49;100.00;99833.38;4990740;28;20072;-87
2021/12/11 10:36:12;;;;;;;17.73;8.63;;;;;;;2.58;100.00;99847.50;5010391;28;20515;-87
2021/12/11 10:38:38;;;;;;;17.27;8.05;;;;;;;2.91;98.53;99844.66;4980470;28;20513;-87
2021/12/11 10:41:08;;;;;;;20.05;9.05;;;;;;;2.77;97.97;99845.00;4987859;28;20528;-86
2021/12/11 10:43:53;;;;;;;19.85;9.45;;;;;;;2.91;97.45;99849.91;5005079;28;20049;-89
2021/12/11 10:46:22;;;;;;;17.83;9.35;;;;;;;3.11;95.80;99861.28;5020431;28;20046;-88
2021/12/11 10:48:48;;;;;;;23.33;9.43;;;;;;;3.17;95.64;99871.25;5001224;28;20044;-87
2021/12/11 10:51:26;;;;;;;17.55;8.88;;;;;;;3.08;96.22;99874.66;5018035;28;20043;-89
2021/12/11 10:53:57;;;;;;;24.20;9.95;;;;;;;3.12;96.07;99868.16;5001186;28;20038;-90
2021/12/11 10:56:25;;;;;;;18.63;10.02;;;;;;;3.31;95.09;99883.16;5017772;28;20061;-88
2021/12/11 10:59:04;;;;;;;16.63;9.20;;;;;;;3.03;94.58;99884.66;5000764;28;20961;-87
2021/12/11 11:01:33;;;;;;;16.30;9.00;;;;;;;3.07;93.02;99891.31;5001683;28;20104;-88
2021/12/11 11:04:02;;;;;;;16.13;9.57;;;;;;;3.09;93.92;99889.38;5019535;28;20034;-88
2021/12/11 11:06:28;;;;;;;20.58;11.60;;;;;;;3.10;94.46;99891.03;5019804;28;20100;-86
2021/12/11 11:08:55;;;;;;;27.02;11.35;;;;;;;3.00;95.24;99892.78;4985576;28;20041;-87
2021/12/11 11:11:26;;;;;;;22.10;12.45;;;;;;;2.78;95.45;99890.31;5020525;28;20037;-88
2021/12/11 11:13:52;;;;;;;23.33;12.68;;;;;;;3.06;94.52;99890.47;5019087;28;20068;-87
2021/12/11 11:16:19;;;;;;;24.65;10.90;;;;;;;3.13;93.73;99881.13;5026631;28;20041;-88
2021/12/11 11:18:46;;;;;;;23.08;12.30;;;;;;;3.31;93.75;99883.16;5021994;28;20038;-87
2021/12/11 11:21:39;;;;;;;20.48;11.70;;;;;;;3.49;92.66;99882.38;5020664;28;20034;-91
2021/12/11 11:24:06;;;;;;;25.50;12.65;;;;;;;3.50;92.41;99877.97;5005496;28;20088;-88
2021/12/11 11:26:35;;;;;;;22.33;12.43;;;;;;;3.67;92.32;99874.72;5017228;28;20484;-89
2021/12/11 11:29:03;;;;;;;30.40;13.98;;;;;;;3.59;92.94;99880.63;5017660;28;20045;-92
2021/12/11 11:31:34;;;;;;;22.15;12.98;;;;;;;3.31;96.08;99883.16;4999021;28;20109;-89
2021/12/11 11:34:02;;;;;;;25.92;12.95;;;;;;;3.30;96.46;99876.25;4997512;28;20060;-90
2021/12/11 11:36:28;;;;;;;21.60;12.15;;;;;;;3.65;94.62;99881.88;5016190;28;20097;-88
2021/12/11 11:38:57;;;;;;;27.23;12.57;;;;;;;3.49;95.08;99882.38;5015204;28;20037;-88
2021/12/11 11:41:28;;;;;;;23.95;11.27;;;;;;;3.56;94.79;99875.66;5015849;28;20049;-89
2021/12/11 11:43:55;;;;;;;18.38;10.95;;;;;;;3.49;95.95;99882.38;4989810;28;20491;-85
2021/12/11 11:46:24;;;;;;;19.08;11.30;;;;;;;3.42;97.25;99876.00;5014129;28;20034;-86
2021/12/11 11:48:52;;;;;;;19.58;11.90;;;;;;;3.41;97.34;99884.84;5016413;28;20096;-88
2021/12/11 11:51:25;;;;;;;18.33;10.10;;;;;;;3.42;97.97;99881.25;5016054;28;20026;-86
2021/12/11 11:53:51;;;;;;;14.82;8.88;;;;;;;3.36;95.00;99876.56;4995992;28;20061;-86
2021/12/11 11:56:23;;;;;;;16.05;9.07;;;;;;;3.43;95.72;99882.91;5004266;28;20062;-88
2021/12/11 11:58:50;;;;;;;15.65;9.68;;;;;;;3.49;95.56;99890.25;5003872;28;20435;-90
2021/12/11 12:01:20;;;;;;;22.65;11.88;;;;;;;3.48;97.53;99893.81;4981438;28;20500;-89
2021/12/11 12:03:50;;;;;;;25.90;12.68;;;;;;;3.70;96.86;99894.59;4994985;28;20041;-88
2021/12/11 12:06:25;;;;;;;18.75;11.23;;;;;;;3.74;95.93;99896.81;5001463;28;20033;-91
2021/12/11 12:08:55;;;;;;;22.33;9.57;;;;;;;4.04;94.55;99893.28;5004286;28;20440;-84
2021/12/11 12:11:25;;;;;;;22.05;11.35;;;;;;;4.20;93.30;99898.00;5012553;28;20034;-87
2021/12/11 12:13:51;;;;;;;20.17;11.32;;;;;;;4.29;93.67;99892.75;5013864;28;20040;-89
2021/12/11 12:16:17;;;;;;;24.20;10.90;;;;;;;4.23;92.98;99900.34;4974490;28;20030;-88
2021/12/11 12:18:44;;;;;;;20.38;12.02;;;;;;;4.40;92.54;99905.75;4992743;28;20062;-90
2021/12/11 12:21:14;;;;;;;23.63;14.05;;;;;;;4.24;92.39;99902.84;4978302;28;20035;-87